Time;durP1;ratioP1;P1;durP2;ratioP2;P2;SDS_P1;SDS_P2;PMS_P1;PMS_P2;Temp;Humidity;BMP_temperature;BMP_pressure;BME280_temperature;BME280_humidity;BME280_pressure;Samples;Min_cycle;Max_cycle;Signal;HPM_P1;HPM_P2
2022/06/25 00:01:21;;;;;;;18.38;4.65;;;21.90;99.90;;;;;;5032368;28;20053;-68
2022/06/25 00:07:48;;;;;;;12.98;4.68;;;21.90;99.90;;;;;;5031655;28;20056;-69
2022/06/25 00:10:52;;;;;;;18.08;4.20;;;21.80;99.90;;;;;;5031778;28;20057;-69
2022/06/25 00:13:56;;;;;;;23.02;4.63;;;21.80;99.90;;;;;;5031807;28;20056;-69
2022/06/25 00:17:01;;;;;;;20.30;5.03;;;21.80;99.90;;;;;;5031468;28;20048;-69
2022/06/25 00:20:06;;;;;;;21.42;4.85;;;21.80;99.90;;;;;;5031878;28;20048;-69
2022/06/25 00:23:11;;;;;;;24.08;4.55;;;21.80;99.90;;;;;;5031682;28;20044;-68
2022/06/25 00:26:14;;;;;;;20.60;4.68;;;21.80;99.90;;;;;;5031221;28;20400;-68
2022/06/25 00:29:18;;;;;;;21.83;5.00;;;21.80;99.90;;;;;;5031393;28;20045;-68
2022/06/25 00:32:23;;;;;;;20.77;5.00;;;21.80;99.90;;;;;;5031523;28;20854;-69
2022/06/25 00:35:27;;;;;;;16.77;4.65;;;21.80;99.90;;;;;;5031703;28;20052;-70
2022/06/25 00:38:31;;;;;;;24.95;5.22;;;21.80;99.90;;;;;;5031361;28;20048;-69
2022/06/25 00:41:35;;;;;;;17.52;5.07;;;21.80;99.90;;;;;;5030623;28;20052;-68
2022/06/25 00:44:39;;;;;;;14.70;4.85;;;21.70;99.90;;;;;;5031085;28;20049;-69
2022/06/25 00:47:43;;;;;;;15.23;4.97;;;21.80;99.90;;;;;;5030259;28;20052;-68
2022/06/25 00:50:47;;;;;;;31.13;6.20;;;21.80;99.90;;;;;;5031314;28;20044;-68
2022/06/25 00:53:54;;;;;;;20.95;4.05;;;21.80;99.90;;;;;;5031496;28;20044;-69
2022/06/25 00:56:58;;;;;;;19.58;4.68;;;21.80;99.90;;;;;;5031015;28;20048;-69
2022/06/25 01:00:06;;;;;;;18.13;4.45;;;21.70;99.90;;;;;;5031285;28;20292;-69
2022/06/25 01:03:10;;;;;;;14.95;4.72;;;21.70;99.90;;;;;;5030420;28;20044;-68
2022/06/25 01:06:14;;;;;;;14.00;4.65;;;21.70;99.90;;;;;;5030745;28;20643;-68
2022/06/25 01:09:18;;;;;;;21.60;4.53;;;21.70;99.90;;;;;;5030220;28;20044;-69
2022/06/25 01:12:23;;;;;;;18.05;5.05;;;21.60;99.90;;;;;;5030716;28;20074;-69
2022/06/25 01:15:28;;;;;;;27.13;5.80;;;21.60;99.90;;;;;;5030781;28;20068;-69
2022/06/25 01:18:32;;;;;;;18.50;5.03;;;21.60;99.90;;;;;;5029863;28;20376;-69
2022/06/25 01:21:36;;;;;;;16.77;4.85;;;21.60;99.90;;;;;;5029453;28;20113;-68
2022/06/25 01:24:40;;;;;;;19.17;4.95;;;21.70;99.90;;;;;;5029608;28;20040;-69
2022/06/25 01:27:46;;;;;;;17.42;4.85;;;21.70;99.90;;;;;;5029075;28;20064;-69
2022/06/25 01:30:50;;;;;;;21.30;4.95;;;21.70;99.90;;;;;;5030129;28;20068;-69
2022/06/25 01:33:54;;;;;;;14.05;4.55;;;21.70;99.90;;;;;;5030793;28;20392;-68
2022/06/25 01:36:58;;;;;;;20.27;4.80;;;21.70;99.90;;;;;;5030057;28;20037;-68
2022/06/25 01:40:03;;;;;;;18.42;4.75;;;21.60;99.90;;;;;;5029609;28;20044;-69
2022/06/25 01:43:07;;;;;;;16.67;5.07;;;21.60;99.90;;;;;;5030250;28;20033;-68
2022/06/25 01:46:11;;;;;;;20.38;4.50;;;21.60;99.90;;;;;;5029902;28;20750;-69
2022/06/25 01:49:17;;;;;;;16.45;4.07;;;21.60;99.90;;;;;;5029626;28;20052;-69
2022/06/25 01:52:21;;;;;;;16.17;4.47;;;21.60;99.90;;;;;;5029903;28;20526;-69
2022/06/25 01:55:25;;;;;;;23.52;5.90;;;21.60;99.90;;;;;;5029069;28;20044;-69
2022/06/25 01:58:31;;;;;;;20.02;4.57;;;21.70;99.90;;;;;;5029641;28;20495;-69
2022/06/25 02:01:36;;;;;;;25.73;5.47;;;21.70;99.90;;;;;;5029206;28;20050;-68
2022/06/25 02:04:40;;;;;;;22.02;4.43;;;21.60;99.90;;;;;;5029109;28;20045;-68
2022/06/25 02:07:45;;;;;;;20.40;5.57;;;21.60;99.90;;;;;;5029050;28;20056;-69
2022/06/25 02:10:54;;;;;;;20.23;4.80;;;21.50;99.90;;;;;;5029016;28;20044;-69
2022/06/25 02:13:58;;;;;;;16.52;4.47;;;21.50;99.90;;;;;;5030671;28;20064;-69
2022/06/25 02:17:05;;;;;;;20.48;4.32;;;21.50;99.90;;;;;;5036667;28;20040;-68
2022/06/25 02:20:09;;;;;;;20.95;4.93;;;21.50;99.90;;;;;;5036309;28;20044;-69
2022/06/25 02:23:15;;;;;;;19.25;4.93;;;21.50;99.90;;;;;;5036649;28;20048;-69
2022/06/25 02:26:19;;;;;;;17.98;4.55;;;21.50;99.90;;;;;;5035771;28;20392;-69
2022/06/25 02:29:24;;;;;;;24.40;4.47;;;21.50;99.90;;;;;;5036567;28;20045;-69
2022/06/25 02:32:30;;;;;;;16.48;5.20;;;21.40;99.90;;;;;;5035036;28;20077;-68
2022/06/25 02:35:34;;;;;;;14.02;4.75;;;21.40;99.90;;;;;;5035264;28;20036;-68
2022/06/25 02:38:39;;;;;;;17.50;5.10;;;21.30;99.90;;;;;;5035010;28;20044;-69
2022/06/25 02:41:44;;;;;;;22.13;5.18;;;21.30;99.90;;;;;;5035172;28;20056;-69
2022/06/25 02:44:48;;;;;;;27.67;6.32;;;21.30;99.90;;;;;;5034967;28;20048;-68
2022/06/25 02:47:52;;;;;;;14.10;4.25;;;21.30;99.90;;;;;;5034903;28;20056;-68
2022/06/25 02:50:56;;;;;;;18.42;5.20;;;21.30;99.90;;;;;;5035553;28;20048;-68
2022/06/25 02:54:00;;;;;;;23.90;5.20;;;21.30;99.90;;;;;;5036138;28;20063;-68
2022/06/25 03:00:28;;;;;;;31.38;5.38;;;21.30;99.90;;;;;;5034825;28;20048;-69
2022/06/25 03:03:32;;;;;;;22.40;5.50;;;21.30;99.90;;;;;;5034844;28;20040;-69
2022/06/25 03:06:36;;;;;;;21.00;5.88;;;21.30;99.90;;;;;;5034873;28;20048;-69
2022/06/25 03:09:41;;;;;;;20.10;5.75;;;21.40;99.90;;;;;;5035234;28;20056;-69
2022/06/25 03:12:45;;;;;;;19.00;5.45;;;21.40;99.90;;;;;;5034929;28;20052;-69
2022/06/25 03:15:55;;;;;;;25.10;5.60;;;21.50;99.90;;;;;;5035442;28;20495;-68
2022/06/25 03:19:01;;;;;;;22.23;5.43;;;21.60;99.90;;;;;;5047084;28;20270;-69
2022/06/25 03:22:24;;;;;;;21.38;5.90;;;21.60;99.90;;;;;;5035369;28;20052;-69
2022/06/25 03:25:29;;;;;;;20.52;5.25;;;21.50;99.90;;;;;;5045160;28;20056;-68
2022/06/25 03:28:37;;;;;;;19.33;5.22;;;21.50;99.90;;;;;;5031707;28;20510;-68
2022/06/25 03:31:43;;;;;;;12.20;4.50;;;21.60;99.90;;;;;;5031831;28;20044;-68
2022/06/25 03:35:06;;;;;;;25.73;6.15;;;21.60;99.90;;;;;;5032868;28;20041;-69
2022/06/25 03:38:15;;;;;;;29.65;6.57;;;21.60;99.90;;;;;;5043373;28;20041;-69
2022/06/25 03:41:35;;;;;;;19.60;5.57;;;21.60;99.90;;;;;;5031960;28;20051;-68
2022/06/25 03:45:02;;;;;;;23.48;5.88;;;21.60;99.90;;;;;;5031938;28;20156;-69
2022/06/25 03:48:10;;;;;;;21.23;5.72;;;21.60;99.90;;;;;;5031143;28;20041;-69
2022/06/25 03:51:34;;;;;;;22.13;6.57;;;21.60;99.90;;;;;;5032328;28;20045;-69
2022/06/25 03:54:39;;;;;;;16.85;5.85;;;21.60;99.90;;;;;;5031777;28;20044;-68
2022/06/25 03:57:43;;;;;;;20.23;5.53;;;21.50;99.90;;;;;;5031141;28;20388;-68
2022/06/25 04:01:07;;;;;;;19.67;5.57;;;21.50;99.90;;;;;;5032496;28;20480;-69
2022/06/25 04:04:12;;;;;;;25.17;6.38;;;21.50;99.90;;;;;;5031562;28;20056;-69
2022/06/25 04:07:16;;;;;;;21.95;5.88;;;21.60;99.90;;;;;;5031012;28;20503;-69
2022/06/25 04:10:20;;;;;;;18.52;5.63;;;21.10;99.90;;;;;;5031496;28;20052;-69
2022/06/25 04:13:24;;;;;;;19.45;5.05;;;21.10;99.90;;;;;;5031285;28;20079;-69
2022/06/25 04:16:28;;;;;;;24.63;5.45;;;21.10;99.90;;;;;;5031795;28;20432;-68
2022/06/25 04:19:40;;;;;;;17.83;5.78;;;21.20;99.90;;;;;;5031293;28;20048;-68
2022/06/25 04:22:44;;;;;;;21.23;4.97;;;21.20;99.90;;;;;;5030807;28;20431;-69
2022/06/25 04:25:49;;;;;;;21.60;6.05;;;21.30;99.90;;;;;;5030783;28;20057;-69
2022/06/25 04:29:04;;;;;;;21.20;5.70;;;21.30;99.90;;;;;;5031121;28;20064;-68
2022/06/25 04:32:31;;;;;;;19.17;6.00;;;21.40;99.90;;;;;;5028768;28;20044;-69
2022/06/25 04:35:53;;;;;;;22.55;5.60;;;21.60;99.90;;;;;;5030951;28;20053;-69
2022/06/25 04:39:16;;;;;;;14.85;4.40;;;21.70;99.90;;;;;;5030984;28;20041;-68
2022/06/25 04:42:21;;;;;;;17.70;4.95;;;21.90;99.90;;;;;;5029856;28;20056;-68
2022/06/25 04:45:25;;;;;;;17.73;5.00;;;22.20;99.90;;;;;;5031755;28;20099;-69
2022/06/25 04:48:49;;;;;;;20.27;4.63;;;22.40;99.90;;;;;;5031899;28;20400;-69
2022/06/25 04:51:53;;;;;;;17.73;5.05;;;22.70;99.90;;;;;;5031244;28;20048;-69
2022/06/25 04:54:57;;;;;;;27.58;5.35;;;22.80;99.90;;;;;;5031742;28;20040;-69
2022/06/25 04:58:01;;;;;;;11.63;4.78;;;22.90;99.90;;;;;;5041516;28;20040;-69
2022/06/25 05:01:25;;;;;;;19.27;4.80;;;23.00;99.90;;;;;;5031245;28;20064;-69
2022/06/25 05:04:29;;;;;;;11.80;3.80;;;23.10;99.90;;;;;;5030545;28;20499;-69
2022/06/25 05:07:33;;;;;;;15.32;4.80;;;23.10;99.90;;;;;;5030555;28;20040;-69
2022/06/25 05:10:37;;;;;;;20.10;5.30;;;23.10;99.90;;;;;;5030485;28;20041;-69
2022/06/25 05:13:41;;;;;;;20.60;5.35;;;23.20;99.90;;;;;;5018684;28;20048;-69
2022/06/25 05:16:45;;;;;;;16.73;4.47;;;23.60;99.90;;;;;;5030651;28;20040;-68
2022/06/25 05:19:49;;;;;;;13.43;3.90;;;23.80;99.90;;;;;;5031089;28;20049;-69
2022/06/25 05:22:53;;;;;;;18.13;4.40;;;23.80;99.90;;;;;;5029884;28;20516;-68
2022/06/25 05:25:57;;;;;;;21.63;4.13;;;23.90;99.90;;;;;;5029741;28;20048;-69
2022/06/25 05:29:02;;;;;;;16.35;3.83;;;24.70;99.90;;;;;;5030652;28;20086;-69
2022/06/25 05:32:06;;;;;;;14.52;4.07;;;24.30;99.90;;;;;;5028995;28;20384;-68
2022/06/25 05:35:10;;;;;;;20.38;3.75;;;23.90;99.90;;;;;;5029628;28;20388;-69
2022/06/25 05:38:15;;;;;;;18.67;4.28;;;24.50;99.90;;;;;;5029030;28;20507;-68
2022/06/25 05:41:19;;;;;;;16.50;3.70;;;26.00;99.90;;;;;;5030463;28;20044;-69
2022/06/25 05:44:23;;;;;;;19.23;4.45;;;27.60;99.90;;;;;;5030773;28;20045;-69
2022/06/25 05:47:27;;;;;;;14.90;4.85;;;27.10;99.90;;;;;;5030538;28;20048;-69
2022/06/25 05:50:32;;;;;;;17.17;3.70;;;27.70;99.90;;;;;;5030163;28;20040;-68
2022/06/25 05:53:35;;;;;;;14.73;3.45;;;28.40;99.90;;;;;;5030387;28;20044;-69
2022/06/25 05:56:40;;;;;;;26.30;4.68;;;28.40;99.90;;;;;;5030207;28;20491;-69
2022/06/25 05:59:43;;;;;;;16.60;4.75;;;29.70;99.90;;;;;;5030306;28;20041;-68
2022/06/25 06:02:47;;;;;;;9.80;3.35;;;29.10;99.90;;;;;;5030400;28;20041;-69
2022/06/25 06:05:51;;;;;;;14.65;3.58;;;29.00;99.90;;;;;;5030416;28;20416;-69
2022/06/25 06:08:55;;;;;;;10.77;3.13;;;29.70;99.90;;;;;;5030577;28;20044;-69
2022/06/25 06:12:00;;;;;;;17.75;3.67;;;30.80;99.90;;;;;;5029508;28;20048;-70
2022/06/25 06:15:04;;;;;;;14.27;3.60;;;31.30;99.30;;;;;;5030461;28;20044;-70
2022/06/25 06:18:08;;;;;;;13.88;3.28;;;32.10;98.40;;;;;;5030125;28;20365;-68
2022/06/25 06:21:12;;;;;;;20.67;4.47;;;31.90;96.60;;;;;;5030174;28;20060;-68
2022/06/25 06:24:16;;;;;;;12.35;3.53;;;31.90;96.90;;;;;;5030335;28;20243;-69
2022/06/25 06:27:21;;;;;;;9.23;2.85;;;32.40;96.50;;;;;;5029200;28;20400;-69
2022/06/25 06:30:25;;;;;;;13.15;3.35;;;33.20;95.40;;;;;;5030561;28;20045;-70
2022/06/25 06:33:29;;;;;;;10.63;3.10;;;32.90;94.40;;;;;;5029987;28;20052;-70
2022/06/25 06:36:33;;;;;;;17.95;3.28;;;32.80;94.30;;;;;;5029853;28;20044;-70
2022/06/25 06:39:37;;;;;;;17.95;3.20;;;33.30;94.00;;;;;;5030315;28;20052;-70
2022/06/25 06:42:41;;;;;;;8.73;2.50;;;34.40;92.90;;;;;;5029170;28;20052;-69
2022/06/25 06:45:45;;;;;;;12.30;3.08;;;35.50;91.50;;;;;;5030229;28;20369;-70
2022/06/25 06:48:49;;;;;;;10.40;2.78;;;36.10;90.90;;;;;;5029920;28;20060;-69
2022/06/25 06:51:53;;;;;;;15.00;2.70;;;35.30;90.50;;;;;;5029907;28;20052;-69
2022/06/25 06:54:59;;;;;;;15.30;3.38;;;33.60;91.90;;;;;;5040686;28;20040;-70
2022/06/25 06:58:03;;;;;;;10.02;2.45;;;33.50;92.30;;;;;;5029419;28;20040;-70
2022/06/25 07:01:07;;;;;;;13.25;3.38;;;34.30;91.90;;;;;;5030802;28;20040;-69
2022/06/25 07:04:11;;;;;;;10.50;2.80;;;34.80;91.10;;;;;;5033258;28;20040;-69
2022/06/25 07:07:15;;;;;;;10.25;2.70;;;35.10;91.00;;;;;;5033166;28;20404;-70
2022/06/25 07:10:20;;;;;;;9.32;3.05;;;36.20;90.30;;;;;;5033672;28;20503;-69
2022/06/25 07:13:24;;;;;;;10.98;2.75;;;37.40;87.70;;;;;;5033040;28;20052;-70
2022/06/25 07:16:29;;;;;;;11.98;3.30;;;36.50;88.60;;;;;;5032640;28;20056;-70
2022/06/25 07:19:32;;;;;;;16.95;3.25;;;35.10;90.00;;;;;;5033398;28;20045;-69
2022/06/25 07:22:37;;;;;;;12.85;3.40;;;35.10;90.30;;;;;;5033012;28;20044;-70
2022/06/25 07:25:40;;;;;;;14.25;3.25;;;34.90;90.50;;;;;;5033420;28;20076;-69
2022/06/25 07:28:44;;;;;;;8.38;2.50;;;35.00;90.00;;;;;;5033046;28;20040;-68
2022/06/25 07:31:49;;;;;;;16.20;2.75;;;36.00;88.70;;;;;;5033121;28;20510;-69
2022/06/25 07:34:53;;;;;;;13.35;2.83;;;37.10;87.50;;;;;;5033285;28;20499;-69
2022/06/25 07:37:57;;;;;;;10.63;3.08;;;38.10;85.50;;;;;;5032799;28;20045;-69
2022/06/25 07:41:02;;;;;;;13.07;2.80;;;38.40;84.20;;;;;;5032577;28;20523;-70
2022/06/25 07:44:07;;;;;;;15.75;3.00;;;38.80;83.20;;;;;;5032894;28;20049;-68
2022/06/25 07:47:12;;;;;;;10.40;2.75;;;39.20;82.20;;;;;;5032266;28;20527;-69
2022/06/25 07:53:38;;;;;;;15.40;3.45;;;39.50;81.30;;;;;;5032199;28;20061;-68
2022/06/25 07:56:42;;;;;;;9.90;2.70;;;39.40;80.60;;;;;;5031946;28;20045;-69
2022/06/25 07:59:46;;;;;;;8.88;2.45;;;40.00;80.40;;;;;;5032325;28;20044;-69
2022/06/25 08:02:51;;;;;;;12.35;3.00;;;40.70;78.70;;;;;;5032632;28;20491;-69
2022/06/25 08:05:56;;;;;;;12.43;2.50;;;41.10;77.30;;;;;;5032491;28;20404;-69
2022/06/25 08:09:01;;;;;;;8.52;2.13;;;40.80;77.30;;;;;;5032427;28;20084;-70
2022/06/25 08:12:05;;;;;;;12.10;2.30;;;41.30;76.70;;;;;;5031934;28;20053;-69
2022/06/25 08:15:10;;;;;;;13.25;2.58;;;42.50;74.70;;;;;;5032152;28;20045;-69
2022/06/25 08:18:14;;;;;;;10.93;2.30;;;42.90;73.40;;;;;;5031834;28;20041;-69
2022/06/25 08:21:19;;;;;;;10.65;3.08;;;43.30;72.30;;;;;;5032132;28;20058;-69
2022/06/25 08:24:23;;;;;;;9.93;2.67;;;39.80;74.70;;;;;;5031851;28;20499;-69
2022/06/25 08:27:27;;;;;;;10.27;2.63;;;40.80;75.30;;;;;;5031777;28;20048;-69
2022/06/25 08:30:31;;;;;;;9.80;3.05;;;42.20;74.20;;;;;;5031770;28;20044;-69
2022/06/25 08:33:35;;;;;;;6.68;2.33;;;43.70;72.40;;;;;;5031786;28;20060;-70
2022/06/25 08:36:39;;;;;;;26.65;4.10;;;44.00;70.90;;;;;;5031384;28;20052;-69
2022/06/25 08:39:43;;;;;;;10.20;2.25;;;42.20;71.90;;;;;;5031499;28;20040;-69
2022/06/25 08:42:48;;;;;;;13.50;2.63;;;40.40;73.60;;;;;;5030640;28;20048;-69
2022/06/25 08:45:57;;;;;;;10.18;2.85;;;39.00;74.40;;;;;;5031658;28;20052;-68
2022/06/25 08:49:01;;;;;;;14.17;2.40;;;38.20;75.00;;;;;;5031766;28;20052;-68
2022/06/25 08:52:07;;;;;;;10.38;2.60;;;38.40;74.70;;;;;;5031842;28;20295;-69
2022/06/25 08:55:19;;;;;;;13.43;3.15;;;37.50;76.40;;;;;;5031669;28;20352;-68
2022/06/25 08:58:23;;;;;;;11.35;3.58;;;35.40;80.00;;;;;;5031311;28;20507;-69
2022/06/25 09:01:27;;;;;;;15.88;4.25;;;33.60;83.30;;;;;;5031673;28;20044;-69
2022/06/25 09:04:34;;;;;;;14.32;3.30;;;32.60;85.60;;;;;;5031303;28;20091;-68
2022/06/25 09:07:38;;;;;;;18.80;3.45;;;31.70;87.30;;;;;;5031155;28;20108;-67
2022/06/25 09:10:44;;;;;;;13.48;3.50;;;31.00;89.10;;;;;;5030391;28;20049;-69
2022/06/25 09:13:49;;;;;;;13.75;3.72;;;30.60;90.90;;;;;;5030815;28;20044;-68
2022/06/25 09:16:56;;;;;;;15.75;3.85;;;30.40;91.50;;;;;;5030900;28;20044;-67
2022/06/25 09:20:03;;;;;;;16.60;4.00;;;30.30;91.90;;;;;;5030953;28;20041;-68
2022/06/25 09:23:07;;;;;;;15.60;4.18;;;30.40;92.00;;;;;;5030780;28;20076;-69
2022/06/25 09:26:11;;;;;;;28.45;3.85;;;31.70;91.60;;;;;;5030030;28;20060;-69
2022/06/25 09:29:16;;;;;;;13.45;3.13;;;35.10;87.80;;;;;;5030915;28;20049;-71
2022/06/25 09:32:20;;;;;;;13.48;3.28;;;38.30;83.30;;;;;;5029771;28;20064;-71
2022/06/25 09:35:39;;;;;;;13.27;3.55;;;40.90;79.00;;;;;;5030764;28;20385;-69
2022/06/25 09:38:49;;;;;;;14.40;2.60;;;42.50;76.30;;;;;;5030679;28;20432;-69
2022/06/25 09:41:53;;;;;;;12.35;2.63;;;43.30;74.40;;;;;;5030757;28;20048;-68
2022/06/25 09:45:04;;;;;;;10.48;2.88;;;43.90;73.30;;;;;;5030591;28;20389;-68
2022/06/25 09:48:15;;;;;;;10.25;2.92;;;44.60;72.30;;;;;;5030283;28;20040;-69
2022/06/25 09:51:23;;;;;;;9.90;2.88;;;45.30;71.60;;;;;;5030483;28;20048;-68
2022/06/25 09:54:27;;;;;;;9.63;2.50;;;46.10;70.00;;;;;;5030437;28;20052;-69
2022/06/25 09:57:32;;;;;;;9.32;2.50;;;46.40;69.20;;;;;;5029794;28;20041;-68
2022/06/25 10:00:37;;;;;;;6.80;2.17;;;47.10;68.50;;;;;;5030492;28;20384;-69
2022/06/25 10:03:42;;;;;;;10.23;2.20;;;47.60;66.80;;;;;;5030772;28;20052;-70
2022/06/25 10:06:49;;;;;;;8.80;2.70;;;47.80;66.40;;;;;;5029815;28;20044;-70
2022/06/25 10:09:53;;;;;;;8.75;2.10;;;48.20;66.00;;;;;;5030183;28;20068;-68
2022/06/25 10:12:57;;;;;;;6.97;2.58;;;48.30;65.60;;;;;;5029844;28;20400;-69
2022/06/25 10:16:02;;;;;;;10.23;1.98;;;48.30;65.60;;;;;;5029771;28;20052;-68
2022/06/25 10:19:10;;;;;;;7.93;2.38;;;48.50;65.00;;;;;;5030269;28;20057;-66
2022/06/25 10:22:14;;;;;;;8.18;2.28;;;47.70;63.30;;;;;;5029456;28;20476;-71
2022/06/25 10:25:22;;;;;;;6.75;2.05;;;47.30;64.40;;;;;;5030209;28;20056;-71
2022/06/25 10:28:28;;;;;;;10.20;2.30;;;47.90;64.10;;;;;;5029598;28;20495;-70
2022/06/25 10:31:32;;;;;;;8.77;2.40;;;48.30;63.80;;;;;;5029951;28;20040;-68
2022/06/25 10:34:36;;;;;;;7.72;2.72;;;49.10;62.60;;;;;;5029820;28;20053;-70
2022/06/25 10:38:10;;;;;;;7.22;2.17;;;46.80;62.90;;;;;;5033659;28;20491;-70
2022/06/25 10:44:37;;;;;;;9.00;2.20;;;45.70;64.50;;;;;;5033649;28;20456;-69
2022/06/25 10:47:50;;;;;;;7.07;2.40;;;46.40;63.80;;;;;;5033189;28;20048;-68
2022/06/25 10:50:54;;;;;;;9.32;2.33;;;47.20;62.80;;;;;;5033554;28;20056;-68
2022/06/25 10:54:00;;;;;;;8.85;2.25;;;46.10;62.30;;;;;;5033380;28;20060;-68
2022/06/25 10:57:04;;;;;;;8.90;2.30;;;44.90;63.50;;;;;;5032728;28;20045;-68
2022/06/25 11:00:13;;;;;;;9.35;2.00;;;45.20;63.20;;;;;;5033776;28;20052;-69
2022/06/25 11:03:37;;;;;;;8.10;2.72;;;45.10;63.40;;;;;;5033474;28;20044;-68
2022/06/25 11:06:41;;;;;;;8.20;2.90;;;43.10;64.70;;;;;;5032991;28;20044;-68
2022/06/25 11:09:53;;;;;;;10.20;2.45;;;43.50;64.60;;;;;;5033430;28;20495;-68
2022/06/25 11:12:57;;;;;;;8.30;2.30;;;44.20;63.50;;;;;;5032937;28;20318;-68
2022/06/25 11:16:18;;;;;;;11.00;2.75;;;42.90;63.90;;;;;;5032940;28;20515;-70
2022/06/25 11:19:24;;;;;;;7.82;2.58;;;43.60;63.90;;;;;;5033205;28;20052;-67
2022/06/25 11:22:28;;;;;;;12.07;2.20;;;44.00;63.80;;;;;;5033183;28;20044;-67
2022/06/25 11:29:22;;;;;;;14.57;3.03;;;38.10;67.10;;;;;;5033053;28;20397;-68
2022/06/25 11:32:28;;;;;;;11.15;2.25;;;37.30;70.70;;;;;;5032179;28;20388;-68
2022/06/25 11:35:40;;;;;;;15.10;2.83;;;38.60;69.90;;;;;;5033183;28;20044;-69
2022/06/25 11:38:54;;;;;;;10.68;2.70;;;40.30;68.00;;;;;;5032856;28;20048;-69
2022/06/25 11:41:58;;;;;;;8.52;2.63;;;41.70;65.00;;;;;;5032889;28;20036;-67
2022/06/25 11:45:03;;;;;;;8.57;2.30;;;40.00;65.80;;;;;;5032474;28;20044;-68
2022/06/25 11:48:08;;;;;;;6.38;2.08;;;39.00;65.60;;;;;;5031428;28;20507;-67
2022/06/25 11:51:16;;;;;;;10.40;2.10;;;35.20;67.10;;;;;;5032636;28;20056;-68
2022/06/25 11:54:23;;;;;;;20.83;3.17;;;36.50;68.40;;;;;;5031868;28;20036;-68
2022/06/25 11:57:28;;;;;;;28.67;2.90;;;36.80;69.20;;;;;;5031543;28;20041;-69
2022/06/25 12:00:32;;;;;;;11.25;2.38;;;36.90;68.30;;;;;;5052361;28;20483;-69
2022/06/25 12:03:37;;;;;;;10.52;2.90;;;36.70;69.80;;;;;;5048690;28;20035;-69
2022/06/25 12:06:40;;;;;;;8.23;2.70;;;37.20;68.40;;;;;;5052267;28;20048;-70
2022/06/25 12:09:44;;;;;;;12.68;2.28;;;38.20;67.30;;;;;;5051505;28;20116;-69
2022/06/25 12:12:49;;;;;;;9.85;2.55;;;38.10;69.10;;;;;;5051967;28;20221;-68
2022/06/25 12:16:11;;;;;;;11.55;2.33;;;38.20;70.10;;;;;;5052503;28;20044;-69
2022/06/25 12:19:16;;;;;;;7.07;2.22;;;37.60;68.50;;;;;;5052261;28;20036;-68
2022/06/25 12:22:29;;;;;;;8.77;2.53;;;37.20;70.00;;;;;;5052430;28;20040;-68
2022/06/25 12:25:38;;;;;;;8.60;2.30;;;37.00;69.50;;;;;;5051672;28;20052;-68
2022/06/25 12:28:42;;;;;;;12.73;2.65;;;37.20;70.20;;;;;;5052543;28;20047;-69
2022/06/25 12:31:58;;;;;;;31.38;3.90;;;38.10;69.90;;;;;;5052912;28;20052;-68
2022/06/25 12:35:02;;;;;;;9.45;2.78;;;37.90;68.50;;;;;;5052783;28;20055;-66
2022/06/25 12:38:13;;;;;;;9.90;2.10;;;37.40;68.30;;;;;;5052147;28;20044;-69
2022/06/25 12:41:17;;;;;;;10.85;2.40;;;37.50;68.60;;;;;;5052509;28;20048;-69
2022/06/25 12:44:33;;;;;;;8.82;2.83;;;37.00;69.30;;;;;;5052131;28;20043;-69
2022/06/25 12:47:41;;;;;;;7.25;3.15;;;37.30;70.30;;;;;;5051466;28;20054;-68
2022/06/25 12:50:47;;;;;;;9.20;2.70;;;38.10;70.00;;;;;;5049576;28;20474;-69
2022/06/25 12:53:56;;;;;;;10.10;2.95;;;38.50;69.10;;;;;;5044498;28;20391;-69
2022/06/25 12:57:04;;;;;;;11.75;2.55;;;37.60;68.10;;;;;;5038848;28;20052;-68
2022/06/25 13:00:25;;;;;;;14.93;2.08;;;37.90;68.40;;;;;;5038597;28;20048;-69
2022/06/25 13:03:29;;;;;;;8.23;2.30;;;38.40;69.30;;;;;;5052041;28;20383;-69
2022/06/25 13:06:34;;;;;;;5.30;1.92;;;38.50;67.70;;;;;;5050671;28;20048;-69
2022/06/25 13:09:40;;;;;;;10.75;2.38;;;38.80;68.00;;;;;;5051439;28;20048;-68
2022/06/25 13:12:44;;;;;;;11.88;3.05;;;38.80;67.50;;;;;;5050688;28;20044;-69
2022/06/25 13:15:48;;;;;;;7.55;2.25;;;38.10;67.60;;;;;;5050851;28;20120;-68
2022/06/25 13:18:52;;;;;;;7.95;2.60;;;38.20;67.50;;;;;;5050499;28;20048;-70
2022/06/25 13:21:58;;;;;;;9.63;2.10;;;37.80;68.20;;;;;;5050815;28;20044;-68
2022/06/25 13:25:02;;;;;;;7.63;2.40;;;37.50;67.80;;;;;;5050413;28;20055;-69
2022/06/25 13:28:06;;;;;;;9.10;2.33;;;37.40;67.70;;;;;;5050271;28;20064;-68
2022/06/25 13:31:10;;;;;;;11.68;2.55;;;36.10;68.50;;;;;;5050756;28;20056;-67
2022/06/25 13:34:15;;;;;;;8.63;2.00;;;36.40;69.90;;;;;;5050246;28;20047;-68
2022/06/25 13:37:19;;;;;;;9.65;2.80;;;35.30;70.20;;;;;;5050389;28;20036;-70
2022/06/25 13:40:23;;;;;;;10.38;2.53;;;36.10;70.10;;;;;;5050359;28;20040;-69
2022/06/25 13:43:28;;;;;;;7.65;1.95;;;35.20;71.20;;;;;;5050261;28;20047;-69
2022/06/25 13:46:32;;;;;;;11.80;2.17;;;34.80;70.50;;;;;;5050064;28;20048;-69
2022/06/25 13:49:37;;;;;;;8.85;2.70;;;35.20;69.60;;;;;;5050211;28;20051;-68
2022/06/25 13:52:41;;;;;;;9.85;2.60;;;35.40;69.90;;;;;;5049942;28;20048;-68
2022/06/25 13:55:45;;;;;;;14.43;2.70;;;35.40;70.70;;;;;;5050287;28;20047;-69
2022/06/25 13:58:49;;;;;;;10.35;2.45;;;33.70;71.00;;;;;;5050092;28;20044;-68
2022/06/25 14:01:53;;;;;;;7.40;2.38;;;33.50;71.60;;;;;;5050205;28;20396;-68
2022/06/25 14:04:58;;;;;;;9.80;2.55;;;34.00;70.70;;;;;;5050088;28;20048;-68
2022/06/25 14:08:02;;;;;;;11.57;2.88;;;34.50;70.80;;;;;;5049611;28;20056;-67
2022/06/25 14:11:11;;;;;;;10.10;2.53;;;35.00;71.20;;;;;;5049219;28;20044;-70
2022/06/25 14:14:15;;;;;;;9.07;2.42;;;35.40;70.60;;;;;;5049971;28;20060;-68
2022/06/25 14:17:23;;;;;;;13.50;2.63;;;35.50;69.90;;;;;;5049277;28;20399;-69
2022/06/25 14:20:28;;;;;;;11.45;2.40;;;35.50;70.70;;;;;;5049951;28;20044;-70
2022/06/25 14:23:33;;;;;;;21.55;3.33;;;35.50;69.40;;;;;;5049733;28;20068;-68
2022/06/25 14:26:37;;;;;;;8.52;1.95;;;35.60;69.80;;;;;;5049439;28;20056;-69
2022/06/25 14:29:41;;;;;;;8.93;2.05;;;35.30;69.30;;;;;;5049535;28;20060;-68
2022/06/25 14:32:44;;;;;;;10.95;2.15;;;35.30;69.10;;;;;;5049809;28;20052;-68
2022/06/25 14:42:34;;;;;;;9.32;2.30;;;35.00;69.40;;;;;;5048603;28;20507;-69
2022/06/25 14:45:38;;;;;;;10.30;1.92;;;33.70;69.90;;;;;;5049710;28;20036;-68
2022/06/25 14:48:42;;;;;;;10.85;2.13;;;33.80;69.30;;;;;;5049677;28;20043;-68
2022/06/25 14:51:47;;;;;;;9.35;2.28;;;34.00;69.30;;;;;;5048564;28;20044;-69
2022/06/25 14:54:52;;;;;;;17.08;2.53;;;34.00;69.40;;;;;;5049263;28;20052;-68
2022/06/25 14:57:56;;;;;;;12.48;2.47;;;33.80;69.10;;;;;;5049357;28;20036;-69
2022/06/25 15:01:01;;;;;;;5.80;1.80;;;33.20;70.00;;;;;;5049462;28;20056;-69
2022/06/25 15:04:06;;;;;;;7.53;1.90;;;33.40;70.60;;;;;;5049670;28;20399;-68
2022/06/25 15:07:10;;;;;;;6.10;2.50;;;33.70;70.30;;;;;;5048861;28;20051;-69
2022/06/25 15:10:14;;;;;;;10.18;1.90;;;34.00;69.60;;;;;;5049491;28;20056;-68
2022/06/25 15:13:18;;;;;;;5.70;2.20;;;34.10;69.40;;;;;;5049611;28;20415;-68
2022/06/25 15:16:25;;;;;;;10.00;2.22;;;34.10;69.50;;;;;;5049034;28;20040;-68
2022/06/25 15:19:29;;;;;;;4.78;1.98;;;33.90;68.20;;;;;;5049514;28;20048;-68
2022/06/25 15:22:33;;;;;;;10.05;2.40;;;33.60;68.80;;;;;;5051205;28;20091;-68
2022/06/25 15:25:38;;;;;;;7.18;2.50;;;33.60;68.90;;;;;;5052986;28;20048;-68
2022/06/25 15:28:41;;;;;;;9.15;2.30;;;33.40;69.70;;;;;;5053173;28;20044;-67
2022/06/25 15:31:45;;;;;;;5.85;1.77;;;33.10;69.80;;;;;;5052431;28;20040;-68
2022/06/25 15:34:49;;;;;;;11.13;2.17;;;33.00;69.90;;;;;;5052578;28;20036;-69
2022/06/25 15:37:53;;;;;;;7.55;2.05;;;33.00;70.00;;;;;;5052600;28;20054;-69
2022/06/25 15:40:57;;;;;;;10.88;1.80;;;33.00;69.20;;;;;;5052281;28;20036;-69
2022/06/25 15:44:01;;;;;;;6.40;1.88;;;32.90;68.70;;;;;;5052584;28;20396;-68
2022/06/25 15:47:05;;;;;;;8.07;2.30;;;32.90;70.10;;;;;;5052203;28;20047;-68
2022/06/25 15:50:11;;;;;;;9.32;2.08;;;32.90;69.40;;;;;;5052345;28;20514;-69
2022/06/25 15:53:15;;;;;;;9.35;2.00;;;32.80;70.30;;;;;;5052655;28;20108;-68
2022/06/25 15:56:19;;;;;;;8.70;2.47;;;32.70;70.10;;;;;;5052255;28;20064;-68
2022/06/25 15:59:28;;;;;;;5.93;1.73;;;32.50;69.30;;;;;;5052524;28;20048;-68
2022/06/25 16:02:32;;;;;;;7.38;1.73;;;32.50;69.50;;;;;;5052319;28;20044;-68
2022/06/25 16:05:36;;;;;;;6.75;1.70;;;32.50;69.10;;;;;;5052430;28;20052;-68
2022/06/25 16:08:40;;;;;;;6.32;2.00;;;32.50;69.10;;;;;;5052447;28;20379;-68
2022/06/25 16:11:44;;;;;;;17.80;2.72;;;32.50;69.70;;;;;;5051856;28;20056;-69
2022/06/25 16:14:48;;;;;;;5.97;2.05;;;32.30;68.50;;;;;;5052207;28;20044;-69
2022/06/25 16:17:52;;;;;;;12.98;2.03;;;32.20;68.90;;;;;;5051799;28;20044;-69
2022/06/25 16:20:56;;;;;;;6.88;1.70;;;32.10;68.50;;;;;;5052468;28;20047;-69
2022/06/25 16:24:04;;;;;;;5.45;2.13;;;32.10;69.10;;;;;;5051854;28;20384;-68